Time;durP1;ratioP1;P1;durP2;ratioP2;P2;SDS_P1;SDS_P2;PMS_P1;PMS_P2;Temp;Humidity;BMP_temperature;BMP_pressure;BME280_temperature;BME280_humidity;BME280_pressure;Samples;Min_cycle;Max_cycle;Signal;HPM_P1;HPM_P2
2022/11/12 00:01:25;;;;;;;16.23;14.60;;;6.50;99.90;;;;;;5074003;28;20433;-76
2022/11/12 00:04:12;;;;;;;15.10;13.70;;;6.50;99.90;;;;;;5073895;28;20423;-76
2022/11/12 00:06:58;;;;;;;16.03;13.53;;;6.50;99.90;;;;;;5074259;28;20567;-76
2022/11/12 00:09:46;;;;;;;15.23;13.73;;;6.50;99.90;;;;;;5074132;28;20534;-76
2022/11/12 00:12:33;;;;;;;14.30;12.90;;;6.50;99.90;;;;;;5073843;28;20477;-76
2022/11/12 00:15:19;;;;;;;14.87;13.40;;;6.40;99.90;;;;;;5073878;28;20536;-76
2022/11/12 00:18:08;;;;;;;14.37;12.87;;;6.40;99.90;;;;;;5073576;28;20424;-76
2022/11/12 00:20:54;;;;;;;15.40;13.90;;;6.40;99.90;;;;;;5073816;28;20917;-76
2022/11/12 00:23:41;;;;;;;14.77;13.33;;;6.30;99.90;;;;;;5073801;28;20456;-76
2022/11/12 00:26:27;;;;;;;15.50;14.10;;;6.30;99.90;;;;;;5073591;28;20921;-76
2022/11/12 00:29:14;;;;;;;14.50;11.80;;;6.30;99.90;;;;;;5073932;28;20445;-76
2022/11/12 00:32:00;;;;;;;14.27;12.77;;;6.30;99.90;;;;;;5073845;28;20461;-76
2022/11/12 00:34:48;;;;;;;14.03;12.63;;;6.30;99.90;;;;;;5074204;28;20436;-76
2022/11/12 00:37:34;;;;;;;13.63;12.20;;;6.20;99.90;;;;;;5073882;28;20425;-76
2022/11/12 00:40:21;;;;;;;14.73;12.50;;;6.20;99.90;;;;;;5073675;28;20425;-76
2022/11/12 00:43:08;;;;;;;12.83;11.63;;;6.20;99.90;;;;;;5073780;28;20808;-76
2022/11/12 00:45:54;;;;;;;13.77;12.40;;;6.20;99.90;;;;;;5073217;28;20511;-76
2022/11/12 00:48:41;;;;;;;12.70;11.50;;;6.20;99.90;;;;;;5073648;28;20429;-76
2022/11/12 00:51:29;;;;;;;14.13;12.13;;;6.20;99.90;;;;;;5073368;28;20448;-76
2022/11/12 00:54:15;;;;;;;12.77;11.50;;;6.10;99.90;;;;;;5073402;28;20441;-76
2022/11/12 00:57:02;;;;;;;12.20;11.10;;;6.10;99.90;;;;;;5073205;28;20471;-76
2022/11/12 00:59:49;;;;;;;12.33;11.03;;;6.10;99.90;;;;;;5075567;28;20475;-76
2022/11/12 01:02:35;;;;;;;12.73;11.37;;;6.10;99.90;;;;;;5077541;28;20467;-76
2022/11/12 01:05:29;;;;;;;11.87;10.77;;;6.10;99.90;;;;;;5080871;28;20453;-75
2022/11/12 01:08:17;;;;;;;12.63;11.33;;;6.10;99.90;;;;;;5081148;28;20420;-76
2022/11/12 01:11:09;;;;;;;12.43;11.33;;;6.10;99.90;;;;;;5081528;28;20419;-74
2022/11/12 01:13:58;;;;;;;13.53;10.53;;;6.00;99.90;;;;;;5082831;28;20425;-76
2022/11/12 01:16:46;;;;;;;10.47;9.47;;;6.00;99.90;;;;;;5083401;28;20846;-76
2022/11/12 01:19:33;;;;;;;11.20;10.10;;;6.00;99.90;;;;;;5082069;28;20432;-76
2022/11/12 01:22:19;;;;;;;12.03;10.83;;;6.00;99.90;;;;;;5083418;28;20480;-76
2022/11/12 01:25:08;;;;;;;11.57;10.57;;;6.00;99.90;;;;;;5083277;28;20424;-76
2022/11/12 01:27:55;;;;;;;11.60;10.60;;;6.00;99.90;;;;;;5082202;28;20452;-75
2022/11/12 01:30:41;;;;;;;11.00;10.00;;;5.90;99.90;;;;;;5079898;28;20452;-76
2022/11/12 01:33:28;;;;;;;11.33;10.20;;;5.90;99.90;;;;;;5082480;28;20554;-76
2022/11/12 01:36:15;;;;;;;11.43;10.37;;;5.90;99.90;;;;;;5078306;28;20560;-75
2022/11/12 01:39:03;;;;;;;11.00;9.90;;;5.90;99.90;;;;;;5077846;28;20429;-76
2022/11/12 01:41:51;;;;;;;12.47;11.30;;;5.90;99.90;;;;;;5076779;28;20460;-76
2022/11/12 01:44:42;;;;;;;11.27;10.17;;;5.90;99.90;;;;;;5076495;28;20441;-76
2022/11/12 01:47:32;;;;;;;11.07;9.97;;;5.80;99.90;;;;;;5075969;28;20958;-76
2022/11/12 01:50:23;;;;;;;12.30;11.20;;;5.80;99.90;;;;;;5076080;28;20498;-76
2022/11/12 01:53:13;;;;;;;12.47;10.43;;;5.80;99.90;;;;;;5076058;28;20809;-76
2022/11/12 01:56:03;;;;;;;11.20;9.90;;;5.80;99.90;;;;;;5076005;28;20430;-76
2022/11/12 01:58:56;;;;;;;12.20;9.00;;;5.80;99.90;;;;;;5076256;28;20414;-76
2022/11/12 02:01:43;;;;;;;10.70;9.70;;;5.80;99.90;;;;;;5076132;28;20421;-76
2022/11/12 02:04:30;;;;;;;11.70;10.27;;;5.70;99.90;;;;;;5076103;28;20505;-76
2022/11/12 02:07:17;;;;;;;12.27;9.87;;;5.70;99.90;;;;;;5075918;28;20472;-76
2022/11/12 02:10:05;;;;;;;11.77;10.53;;;5.70;99.90;;;;;;5075676;28;20425;-76
2022/11/12 02:15:59;;;;;;;12.40;10.97;;;5.70;99.90;;;;;;5075808;28;20984;-76
2022/11/12 02:18:46;;;;;;;12.90;11.50;;;5.70;99.90;;;;;;5075615;28;20475;-76
2022/11/12 02:21:34;;;;;;;13.73;11.67;;;5.70;99.90;;;;;;5075683;28;20456;-76
2022/11/12 02:24:39;;;;;;;11.60;9.97;;;5.60;99.90;;;;;;5075587;28;20424;-76
2022/11/12 02:27:26;;;;;;;12.40;10.83;;;5.60;99.90;;;;;;5075351;28;20451;-76
2022/11/12 02:30:12;;;;;;;11.70;10.50;;;5.60;99.90;;;;;;5075379;28;20524;-76
2022/11/12 02:32:59;;;;;;;12.20;11.00;;;5.60;99.90;;;;;;5075485;28;20479;-76
2022/11/12 02:35:46;;;;;;;12.17;10.70;;;5.60;99.90;;;;;;5075418;28;20926;-76
2022/11/12 02:38:34;;;;;;;10.70;9.60;;;5.60;99.90;;;;;;5075053;28;20448;-76
2022/11/12 02:41:20;;;;;;;13.20;10.27;;;5.60;99.90;;;;;;5074875;28;20447;-76
2022/11/12 02:44:07;;;;;;;12.40;11.10;;;5.50;99.90;;;;;;5075185;28;20444;-76
2022/11/12 02:46:53;;;;;;;11.80;9.60;;;5.50;99.90;;;;;;5074828;28;20528;-76
2022/11/12 02:49:40;;;;;;;12.73;10.00;;;5.50;99.90;;;;;;5074990;28;20422;-76
2022/11/12 02:52:26;;;;;;;10.90;9.80;;;5.50;99.90;;;;;;5075114;28;20822;-76
2022/11/12 02:55:15;;;;;;;11.10;9.97;;;5.50;99.90;;;;;;5075022;28;20556;-76
2022/11/12 02:58:01;;;;;;;11.73;10.53;;;5.50;99.90;;;;;;5074746;28;20512;-76
2022/11/12 03:00:49;;;;;;;9.67;7.87;;;5.50;99.90;;;;;;5075018;28;20518;-76
2022/11/12 03:03:35;;;;;;;13.10;11.03;;;5.40;99.90;;;;;;5074652;28;20479;-76
2022/11/12 03:06:22;;;;;;;11.40;9.97;;;5.40;99.90;;;;;;5074378;28;20516;-76
2022/11/12 03:09:08;;;;;;;11.10;10.00;;;5.40;99.90;;;;;;5074644;28;20827;-76
2022/11/12 03:11:56;;;;;;;11.93;10.63;;;5.40;99.90;;;;;;5074577;28;20465;-76
2022/11/12 03:14:43;;;;;;;13.57;11.00;;;5.40;99.90;;;;;;5074343;28;20472;-76
2022/11/12 03:17:29;;;;;;;11.87;10.67;;;5.40;99.90;;;;;;5074283;28;20501;-76
2022/11/12 03:20:16;;;;;;;12.83;11.53;;;5.30;99.90;;;;;;5074461;28;20436;-76
2022/11/12 03:23:06;;;;;;;12.23;10.93;;;5.30;99.90;;;;;;5073724;28;20473;-76
2022/11/12 03:25:53;;;;;;;11.87;10.50;;;5.30;99.90;;;;;;5073984;28;20429;-76
2022/11/12 03:28:41;;;;;;;14.10;12.70;;;5.30;99.90;;;;;;5074003;28;20421;-76
2022/11/12 03:31:27;;;;;;;13.07;11.50;;;5.30;99.90;;;;;;5074213;28;20785;-76
2022/11/12 03:34:14;;;;;;;12.93;11.57;;;5.20;99.90;;;;;;5074021;28;20440;-76
2022/11/12 03:37:00;;;;;;;15.57;13.00;;;5.20;99.90;;;;;;5074244;28;20528;-76
2022/11/12 03:39:46;;;;;;;13.03;11.57;;;5.20;99.90;;;;;;5074595;28;20483;-76
2022/11/12 03:42:33;;;;;;;12.00;10.80;;;5.20;99.90;;;;;;5074121;28;20483;-76
2022/11/12 03:45:22;;;;;;;12.13;11.03;;;5.10;99.90;;;;;;5074113;28;20429;-76
2022/11/12 03:48:08;;;;;;;12.63;11.33;;;5.10;99.90;;;;;;5073631;28;20567;-76
2022/11/12 03:50:58;;;;;;;12.77;11.40;;;5.10;99.90;;;;;;5074062;28;20432;-76
2022/11/12 03:53:44;;;;;;;12.13;10.93;;;5.10;99.90;;;;;;5073881;28;20507;-76
2022/11/12 03:56:31;;;;;;;12.93;11.63;;;5.10;99.90;;;;;;5073890;28;20421;-76
2022/11/12 03:59:17;;;;;;;12.13;10.93;;;5.10;99.90;;;;;;5074184;28;20429;-76
2022/11/12 04:02:05;;;;;;;13.37;11.93;;;5.00;99.90;;;;;;5073909;28;20572;-76
2022/11/12 04:11:05;;;;;;;19.00;17.00;;;5.00;99.90;;;;;;5073912;28;20425;-76
2022/11/12 04:13:52;;;;;;;22.57;19.10;;;5.00;99.90;;;;;;5073825;28;20460;-76
2022/11/12 04:22:48;;;;;;;20.83;18.67;;;4.90;99.90;;;;;;5073277;28;20572;-76
2022/11/12 04:28:38;;;;;;;17.70;15.90;;;4.90;99.90;;;;;;5074795;28;20460;-76
2022/11/12 04:31:24;;;;;;;16.53;13.90;;;4.90;99.90;;;;;;5073919;28;20421;-76
2022/11/12 04:34:28;;;;;;;13.80;12.47;;;4.90;99.90;;;;;;5075326;28;20924;-76
2022/11/12 04:37:17;;;;;;;12.67;11.30;;;4.90;99.90;;;;;;5079325;28;20416;-76
2022/11/12 04:46:16;;;;;;;13.00;11.70;;;4.80;99.90;;;;;;5078209;28;20573;-76
2022/11/12 04:49:03;;;;;;;11.83;10.63;;;4.80;99.90;;;;;;5078283;28;20550;-76
2022/11/12 04:52:05;;;;;;;12.80;11.60;;;4.80;99.90;;;;;;5078210;28;20928;-76
2022/11/12 04:54:53;;;;;;;14.67;12.10;;;5.20;99.90;;;;;;5077826;28;20412;-76
2022/11/12 04:57:39;;;;;;;12.40;11.20;;;4.70;99.90;;;;;;5077639;28;20930;-76
2022/11/12 05:00:26;;;;;;;12.40;11.10;;;4.70;99.90;;;;;;5077703;28;20471;-76
2022/11/12 05:03:13;;;;;;;11.97;10.77;;;4.70;99.90;;;;;;5077257;28;20452;-76
2022/11/12 05:06:49;;;;;;;13.20;11.90;;;4.60;99.90;;;;;;5077036;28;20432;-76
2022/11/12 05:09:11;;;;;;;11.63;10.43;;;4.60;99.90;;;;;;5076517;28;20444;-76
2022/11/12 05:11:59;;;;;;;13.20;11.80;;;4.60;99.90;;;;;;5076691;28;20463;-76
2022/11/12 05:14:45;;;;;;;13.40;12.20;;;4.60;99.90;;;;;;5076474;28;20500;-76
2022/11/12 05:17:32;;;;;;;12.67;10.90;;;4.50;99.90;;;;;;5077067;28;20433;-76
2022/11/12 05:20:18;;;;;;;11.60;10.40;;;4.50;99.90;;;;;;5080205;28;20840;-75
2022/11/12 05:23:05;;;;;;;13.00;11.90;;;4.50;99.90;;;;;;5078279;28;20543;-76
2022/11/12 05:25:53;;;;;;;12.70;11.33;;;4.50;99.90;;;;;;5077164;28;20424;-76
2022/11/12 05:28:41;;;;;;;12.20;10.93;;;4.50;99.90;;;;;;5078691;28;20459;-76
2022/11/12 05:31:28;;;;;;;12.60;11.40;;;4.40;99.90;;;;;;5078152;28;20474;-76
2022/11/12 05:34:15;;;;;;;14.43;11.63;;;4.40;99.90;;;;;;5077542;28;20437;-76
2022/11/12 05:37:10;;;;;;;14.10;12.73;;;4.40;99.90;;;;;;5077303;28;20491;-76
2022/11/12 05:39:57;;;;;;;15.00;12.40;;;4.40;99.90;;;;;;5077257;28;20425;-76
2022/11/12 05:42:45;;;;;;;15.03;13.57;;;4.40;99.90;;;;;;5076580;28;20463;-76
2022/11/12 05:45:33;;;;;;;15.30;13.57;;;4.40;99.90;;;;;;5075916;28;20479;-76
2022/11/12 05:48:19;;;;;;;14.20;12.80;;;4.30;99.90;;;;;;5076577;28;20456;-76
2022/11/12 05:51:12;;;;;;;14.90;13.47;;;4.30;99.90;;;;;;5076699;28;20480;-76
2022/11/12 05:54:01;;;;;;;14.27;12.87;;;4.30;99.90;;;;;;5076437;28;20433;-76
2022/11/12 05:56:48;;;;;;;14.37;12.40;;;4.30;99.90;;;;;;5076211;28;20432;-76
2022/11/12 05:59:34;;;;;;;13.70;12.20;;;4.30;99.90;;;;;;5075749;28;20929;-76
2022/11/12 06:02:22;;;;;;;13.37;12.07;;;4.30;99.90;;;;;;5076161;28;20940;-76
2022/11/12 06:05:09;;;;;;;12.93;11.63;;;4.30;99.90;;;;;;5076161;28;20416;-76
2022/11/12 06:07:55;;;;;;;14.07;12.57;;;4.20;99.90;;;;;;5076173;28;20472;-76
2022/11/12 06:10:42;;;;;;;15.33;13.77;;;4.20;99.90;;;;;;5076168;28;20483;-76
2022/11/12 06:13:29;;;;;;;15.23;13.63;;;4.20;99.90;;;;;;5075757;28;20526;-76
2022/11/12 06:16:15;;;;;;;15.40;13.90;;;4.20;99.90;;;;;;5076001;28;20920;-76
2022/11/12 06:19:03;;;;;;;14.57;13.07;;;4.20;99.90;;;;;;5075651;28;20420;-76
2022/11/12 06:21:50;;;;;;;14.20;12.70;;;4.20;99.90;;;;;;5075558;28;20564;-76
2022/11/12 06:24:37;;;;;;;15.40;12.60;;;4.20;99.90;;;;;;5075972;28;20779;-76
2022/11/12 06:27:23;;;;;;;17.90;14.07;;;4.20;99.90;;;;;;5075438;28;20972;-76
2022/11/12 06:30:11;;;;;;;15.70;14.10;;;4.20;99.90;;;;;;5075785;28;20479;-76
2022/11/12 06:32:57;;;;;;;16.40;14.70;;;4.10;99.90;;;;;;5075980;28;20530;-76
2022/11/12 06:35:45;;;;;;;16.30;14.63;;;4.10;99.90;;;;;;5075732;28;20428;-76
2022/11/12 06:38:33;;;;;;;18.23;15.13;;;4.10;99.90;;;;;;5075691;28;20516;-76
2022/11/12 06:41:19;;;;;;;15.63;13.90;;;4.10;99.90;;;;;;5075583;28;20775;-76
2022/11/12 06:44:06;;;;;;;15.47;13.90;;;4.10;99.90;;;;;;5074983;28;20420;-76
2022/11/12 06:46:53;;;;;;;15.83;14.33;;;4.10;99.90;;;;;;5075336;28;20571;-76
2022/11/12 06:49:39;;;;;;;14.40;13.00;;;4.10;99.90;;;;;;5075106;28;20468;-76
2022/11/12 06:52:27;;;;;;;15.90;14.30;;;4.10;99.90;;;;;;5074915;28;21055;-76
2022/11/12 06:55:14;;;;;;;16.03;13.47;;;4.10;99.90;;;;;;5074894;28;20421;-76
2022/11/12 06:58:00;;;;;;;15.20;13.60;;;4.10;99.90;;;;;;5074033;28;20417;-76
2022/11/12 07:00:47;;;;;;;14.90;13.30;;;4.00;99.90;;;;;;5074697;28;20499;-76
2022/11/12 07:03:34;;;;;;;14.83;13.33;;;4.10;99.90;;;;;;5074683;28;21035;-76
2022/11/12 07:06:21;;;;;;;15.07;13.70;;;4.00;99.90;;;;;;5074632;28;20930;-76
2022/11/12 07:09:10;;;;;;;17.17;15.57;;;4.00;99.90;;;;;;5074593;28;20452;-76
2022/11/12 07:11:57;;;;;;;18.60;16.13;;;4.00;99.90;;;;;;5074818;28;20981;-76
2022/11/12 07:14:43;;;;;;;21.03;18.40;;;4.00;99.90;;;;;;5075351;28;20543;-76
2022/11/12 07:17:30;;;;;;;20.70;18.80;;;4.00;99.90;;;;;;5074904;28;20579;-76
2022/11/12 07:20:18;;;;;;;19.30;17.47;;;4.00;99.90;;;;;;5074889;28;20475;-76
2022/11/12 07:23:04;;;;;;;17.27;15.57;;;4.10;99.90;;;;;;5074284;28;20480;-76
2022/11/12 07:25:57;;;;;;;19.17;17.37;;;4.00;99.90;;;;;;5074465;28;20507;-76
2022/11/12 07:28:44;;;;;;;21.10;19.30;;;4.00;99.90;;;;;;5074587;28;20456;-76
2022/11/12 07:31:31;;;;;;;21.37;19.23;;;4.10;99.90;;;;;;5074574;28;20933;-75
2022/11/12 07:34:17;;;;;;;18.27;16.47;;;4.10;99.90;;;;;;5074804;28;20548;-76
2022/11/12 07:37:04;;;;;;;21.07;18.97;;;4.10;99.90;;;;;;5074518;28;20463;-76
2022/11/12 07:39:50;;;;;;;19.30;17.50;;;4.10;99.90;;;;;;5074817;28;20776;-76
2022/11/12 07:42:38;;;;;;;23.20;20.80;;;4.10;99.90;;;;;;5074398;28;20539;-76
2022/11/12 07:45:25;;;;;;;33.17;28.33;;;4.10;99.90;;;;;;5074305;28;20420;-76
2022/11/12 07:48:12;;;;;;;21.17;18.90;;;4.10;99.90;;;;;;5073862;28;20455;-76
2022/11/12 07:51:02;;;;;;;26.70;24.20;;;4.10;99.90;;;;;;5077685;28;20794;-76
2022/11/12 07:53:50;;;;;;;36.20;33.20;;;4.20;99.90;;;;;;5079158;28;20464;-75
2022/11/12 07:56:44;;;;;;;33.33;30.53;;;4.20;99.90;;;;;;5078735;28;20421;-76
2022/11/12 07:59:32;;;;;;;22.77;20.60;;;4.20;99.90;;;;;;5079332;28;20425;-76
2022/11/12 08:02:18;;;;;;;19.57;17.57;;;4.20;99.90;;;;;;5080940;28;20467;-75
2022/11/12 08:05:06;;;;;;;22.43;20.20;;;4.20;99.90;;;;;;5079456;28;20960;-76
2022/11/12 08:08:01;;;;;;;20.53;18.60;;;4.30;99.90;;;;;;5075453;28;20428;-76
2022/11/12 08:10:48;;;;;;;24.30;21.00;;;4.30;99.90;;;;;;5074529;28;20482;-76
2022/11/12 08:13:35;;;;;;;23.97;21.50;;;4.30;99.90;;;;;;5075456;28;20460;-75
2022/11/12 08:16:23;;;;;;;21.30;19.00;;;4.30;99.90;;;;;;5077078;28;20416;-75
2022/11/12 08:19:09;;;;;;;20.57;18.70;;;4.40;99.90;;;;;;5076737;28;20796;-75
2022/11/12 08:21:56;;;;;;;18.93;17.20;;;4.40;99.90;;;;;;5075157;28;20479;-76
2022/11/12 08:24:42;;;;;;;19.27;17.30;;;4.50;99.90;;;;;;5074382;28;20772;-73
2022/11/12 08:27:29;;;;;;;19.60;17.70;;;4.50;99.90;;;;;;5073746;28;20429;-73
2022/11/12 08:30:16;;;;;;;20.73;18.60;;;4.50;99.90;;;;;;5073704;28;20507;-74
2022/11/12 08:33:05;;;;;;;22.77;20.63;;;4.60;99.90;;;;;;5073835;28;20514;-74
2022/11/12 08:35:52;;;;;;;21.00;19.17;;;4.70;99.90;;;;;;5074249;28;20416;-75
2022/11/12 08:38:39;;;;;;;20.43;18.43;;;4.70;99.90;;;;;;5074142;28;20921;-75
2022/11/12 08:41:26;;;;;;;25.47;23.07;;;4.80;99.90;;;;;;5073384;28;20786;-75
2022/11/12 08:44:12;;;;;;;24.50;22.10;;;4.80;99.90;;;;;;5073110;28;20452;-75
2022/11/12 08:46:59;;;;;;;24.60;22.30;;;4.90;99.90;;;;;;5073715;28;20502;-76
2022/11/12 08:49:47;;;;;;;21.40;19.40;;;5.00;99.90;;;;;;5073472;28;20449;-76
2022/11/12 08:52:34;;;;;;;21.50;19.60;;;5.00;99.90;;;;;;5074032;28;20550;-76
2022/11/12 08:55:21;;;;;;;22.10;20.10;;;5.10;99.90;;;;;;5074074;28;20425;-72
2022/11/12 08:58:09;;;;;;;20.43;18.83;;;5.10;99.90;;;;;;5072943;28;20421;-73
2022/11/12 09:00:56;;;;;;;22.47;20.40;;;5.20;99.90;;;;;;5076501;28;21002;-75
2022/11/12 09:03:43;;;;;;;20.83;19.03;;;5.30;99.90;;;;;;5074055;28;20460;-76
2022/11/12 09:06:31;;;;;;;21.37;19.43;;;5.40;99.90;;;;;;5074121;28;20491;-75
2022/11/12 09:09:17;;;;;;;21.50;19.60;;;5.50;99.90;;;;;;5073581;28;20457;-77
2022/11/12 09:12:04;;;;;;;21.77;19.90;;;5.60;99.90;;;;;;5073283;28;20498;-77
2022/11/12 09:15:01;;;;;;;22.50;20.50;;;5.60;99.90;;;;;;5073524;28;20514;-75
2022/11/12 09:18:12;;;;;;;22.73;20.60;;;5.70;99.90;;;;;;5073092;28;20452;-76
2022/11/12 09:21:01;;;;;;;21.80;19.90;;;5.90;99.90;;;;;;5074916;28;20428;-77
2022/11/12 09:23:49;;;;;;;22.97;20.87;;;5.90;99.90;;;;;;5076879;28;20459;-77
2022/11/12 09:26:36;;;;;;;21.03;19.23;;;6.00;99.90;;;;;;5076946;28;20619;-77
2022/11/12 09:29:22;;;;;;;20.73;18.77;;;6.10;99.90;;;;;;5076413;28;20471;-77
2022/11/12 09:32:09;;;;;;;19.40;17.80;;;6.20;99.90;;;;;;5076540;28;20828;-77
2022/11/12 09:34:55;;;;;;;19.90;18.23;;;6.30;99.90;;;;;;5076906;28;20930;-77
2022/11/12 09:37:41;;;;;;;20.93;19.23;;;6.40;99.90;;;;;;5076631;28;20429;-77
2022/11/12 09:40:43;;;;;;;22.20;20.20;;;6.50;99.90;;;;;;5076660;28;20459;-77
2022/11/12 09:43:34;;;;;;;20.20;18.10;;;6.60;99.90;;;;;;5076577;28;20463;-77
2022/11/12 09:46:29;;;;;;;21.10;19.03;;;6.70;99.90;;;;;;5076215;28;20429;-77
2022/11/12 09:49:19;;;;;;;20.37;18.53;;;6.80;99.90;;;;;;5075835;28;20461;-77
2022/11/12 09:52:14;;;;;;;21.00;18.80;;;6.80;99.90;;;;;;5075901;28;20460;-77
2022/11/12 09:55:08;;;;;;;19.40;17.70;;;6.90;99.90;;;;;;5075812;28;20434;-75
2022/11/12 09:57:56;;;;;;;20.20;18.10;;;7.00;99.90;;;;;;5076113;28;20430;-76
2022/11/12 10:00:57;;;;;;;19.87;17.77;;;7.10;99.90;;;;;;5076318;28;20426;-76
2022/11/12 10:03:53;;;;;;;20.37;18.37;;;7.10;99.90;;;;;;5075690;28;20469;-76
2022/11/12 10:06:49;;;;;;;19.93;18.10;;;7.20;99.90;;;;;;5075984;28;20422;-76
2022/11/12 10:09:45;;;;;;;17.93;16.37;;;7.30;99.90;;;;;;5075971;28;20454;-76
2022/11/12 10:12:42;;;;;;;19.50;17.80;;;7.30;99.90;;;;;;5075890;28;20465;-77
2022/11/12 10:19:14;;;;;;;18.37;16.67;;;7.50;99.90;;;;;;5075659;28;20505;-76
2022/11/12 10:22:11;;;;;;;18.70;17.00;;;7.50;99.90;;;;;;5075372;28;20476;-77
2022/11/12 10:25:09;;;;;;;18.57;16.87;;;7.50;99.90;;;;;;5075470;28;20444;-77
2022/11/12 10:27:56;;;;;;;18.73;17.10;;;7.60;99.90;;;;;;5075778;28;20421;-77
2022/11/12 10:30:44;;;;;;;18.27;16.57;;;7.60;99.90;;;;;;5075072;28;20459;-77
2022/11/12 10:33:32;;;;;;;18.87;17.17;;;7.70;99.90;;;;;;5075359;28;20477;-77
2022/11/12 10:36:24;;;;;;;19.23;17.53;;;7.70;99.90;;;;;;5075294;28;20577;-77
2022/11/12 10:39:31;;;;;;;21.07;18.90;;;7.80;99.90;;;;;;5075567;28;20431;-73
2022/11/12 10:42:20;;;;;;;18.67;17.07;;;7.80;99.90;;;;;;5076215;28;20457;-76
2022/11/12 10:45:20;;;;;;;18.30;16.80;;;7.90;99.90;;;;;;5075153;28;20948;-76
2022/11/12 10:48:24;;;;;;;17.20;15.80;;;8.00;99.90;;;;;;5075135;28;20466;-76
2022/11/12 10:51:20;;;;;;;18.03;16.53;;;8.10;99.90;;;;;;5074679;28;20455;-76
2022/11/12 10:54:30;;;;;;;16.77;15.10;;;8.20;99.90;;;;;;5074942;28;20442;-76
2022/11/12 10:57:21;;;;;;;17.10;15.80;;;8.30;99.90;;;;;;5074946;28;20474;-75
2022/11/12 11:00:16;;;;;;;16.63;15.03;;;8.30;99.90;;;;;;5075009;28;20425;-75
2022/11/12 11:03:06;;;;;;;16.70;15.13;;;8.40;99.90;;;;;;5074876;28;20456;-74
2022/11/12 11:05:58;;;;;;;16.50;15.10;;;8.40;99.90;;;;;;5074890;28;20933;-74
2022/11/12 11:08:47;;;;;;;17.60;16.00;;;8.50;99.90;;;;;;5074587;28;20431;-74
2022/11/12 11:11:34;;;;;;;16.30;14.90;;;8.50;99.90;;;;;;5074378;28;20452;-74
2022/11/12 11:14:30;;;;;;;15.40;14.00;;;8.50;99.90;;;;;;5074535;28;20424;-75
2022/11/12 11:17:18;;;;;;;15.90;14.50;;;8.60;99.90;;;;;;5074745;28;20447;-75
2022/11/12 11:20:14;;;;;;;16.80;15.27;;;8.70;99.90;;;;;;5074366;28;20986;-73
2022/11/12 11:23:06;;;;;;;15.73;14.33;;;8.70;99.90;;;;;;5073815;28;20615;-73
2022/11/12 11:25:58;;;;;;;16.13;14.73;;;8.80;99.90;;;;;;5074312;28;20902;-73
2022/11/12 11:28:53;;;;;;;14.33;13.03;;;8.90;99.90;;;;;;5074196;28;20461;-75
2022/11/12 11:31:46;;;;;;;16.73;13.80;;;9.00;99.90;;;;;;5074058;28;20459;-75
2022/11/12 11:34:43;;;;;;;14.30;13.10;;;9.10;99.90;;;;;;5074194;28;21049;-74
2022/11/12 11:37:32;;;;;;;15.07;13.77;;;9.20;99.90;;;;;;5073855;28;20420;-75
2022/11/12 11:40:27;;;;;;;14.67;13.27;;;9.20;99.90;;;;;;5074004;28;20476;-75
2022/11/12 11:43:32;;;;;;;13.97;12.80;;;9.30;99.90;;;;;;5073521;28;20861;-75
2022/11/12 11:46:45;;;;;;;14.20;13.00;;;9.40;99.90;;;;;;5074030;28;20421;-75
2022/11/12 11:49:50;;;;;;;26.33;23.60;;;9.50;99.90;;;;;;5073789;28;20799;-75
2022/11/12 11:52:50;;;;;;;18.57;16.67;;;9.60;99.90;;;;;;5074141;28;20506;-75
2022/11/12 11:55:48;;;;;;;14.43;13.13;;;9.70;99.90;;;;;;5073883;28;20779;-75
2022/11/12 11:58:59;;;;;;;14.23;12.80;;;9.80;99.90;;;;;;5073840;28;20571;-75
2022/11/12 12:02:03;;;;;;;13.73;12.33;;;9.80;99.90;;;;;;5074389;28;20921;-76
2022/11/12 12:04:58;;;;;;;13.07;11.77;;;9.90;99.90;;;;;;5073807;28;21039;-75
2022/11/12 12:07:55;;;;;;;12.20;11.10;;;9.90;99.90;;;;;;5074863;28;20420;-75
2022/11/12 12:10:52;;;;;;;12.87;11.60;;;10.00;99.90;;;;;;5074949;28;20456;-75
2022/11/12 12:14:22;;;;;;;13.20;12.00;;;10.10;99.90;;;;;;5073989;28;20440;-75
2022/11/12 12:17:19;;;;;;;13.23;12.13;;;10.20;99.90;;;;;;5073724;28;20436;-75
2022/11/12 12:20:16;;;;;;;15.60;14.20;;;10.20;99.90;;;;;;5073973;28;20490;-74
2022/11/12 12:23:06;;;;;;;13.70;12.50;;;10.30;99.90;;;;;;5074040;28;20476;-74
2022/11/12 12:25:57;;;;;;;14.80;13.30;;;10.30;99.90;;;;;;5073873;28;20535;-76
2022/11/12 12:28:50;;;;;;;13.60;12.30;;;10.40;99.90;;;;;;5074844;28;20425;-75
2022/11/12 12:31:44;;;;;;;14.10;12.90;;;10.50;99.90;;;;;;5074467;28;20463;-76
2022/11/12 12:34:33;;;;;;;15.23;13.73;;;10.50;99.90;;;;;;5074907;28;20475;-76
2022/11/12 12:37:27;;;;;;;15.50;14.00;;;10.60;99.90;;;;;;5080450;28;20429;-76
2022/11/12 12:40:18;;;;;;;16.57;15.17;;;10.60;99.90;;;;;;5076885;28;20945;-76
2022/11/12 12:43:19;;;;;;;14.00;12.70;;;10.70;99.90;;;;;;5080481;28;20471;-77
2022/11/12 12:46:06;;;;;;;15.57;14.23;;;10.70;99.90;;;;;;5082951;28;20420;-76
2022/11/12 12:48:55;;;;;;;15.37;13.90;;;10.80;99.90;;;;;;5081273;28;20445;-77
2022/11/12 12:51:42;;;;;;;16.63;14.93;;;10.80;99.90;;;;;;5080620;28;20464;-77
2022/11/12 12:54:57;;;;;;;15.67;14.27;;;10.90;99.90;;;;;;5080102;28;20464;-77
2022/11/12 12:57:44;;;;;;;15.40;14.10;;;10.90;99.90;;;;;;5080311;28;20501;-77
2022/11/12 13:00:40;;;;;;;15.70;14.20;;;11.00;99.90;;;;;;5077376;28;20488;-78
2022/11/12 13:03:51;;;;;;;16.20;14.80;;;11.00;99.90;;;;;;5077924;28;20464;-78
2022/11/12 13:06:39;;;;;;;16.70;15.23;;;11.00;99.90;;;;;;5082261;28;20429;-77
2022/11/12 13:09:27;;;;;;;15.03;13.73;;;11.10;99.90;;;;;;5081267;28;20428;-78
2022/11/12 13:12:23;;;;;;;15.20;13.80;;;11.10;99.90;;;;;;5078522;28;21131;-78
2022/11/12 13:15:15;;;;;;;13.83;12.63;;;11.20;99.90;;;;;;5077633;28;20433;-78
2022/11/12 13:18:08;;;;;;;13.93;12.73;;;11.20;99.90;;;;;;5079097;28;20424;-76
2022/11/12 13:21:11;;;;;;;19.23;13.90;;;11.30;99.90;;;;;;5078037;28;20524;-77
2022/11/12 13:24:09;;;;;;;15.20;13.90;;;11.30;99.90;;;;;;5078066;28;20559;-76
2022/11/12 13:26:57;;;;;;;17.83;16.30;;;11.30;99.90;;;;;;5077221;28;20506;-76
2022/11/12 13:29:45;;;;;;;19.23;17.43;;;11.30;99.90;;;;;;5077193;28;20420;-76
2022/11/12 13:32:42;;;;;;;17.00;15.47;;;11.30;99.90;;;;;;5076811;28;20617;-76
2022/11/12 13:35:40;;;;;;;17.77;16.20;;;11.40;99.90;;;;;;5077722;28;20437;-77
2022/11/12 13:38:26;;;;;;;17.10;15.70;;;11.40;99.90;;;;;;5077266;28;20420;-74
2022/11/12 13:41:18;;;;;;;14.97;13.67;;;11.40;99.90;;;;;;5077086;28;20467;-75
2022/11/12 13:44:07;;;;;;;16.97;14.30;;;11.50;99.90;;;;;;5077076;28;20997;-76
2022/11/12 13:46:55;;;;;;;16.10;14.60;;;11.50;99.90;;;;;;5076438;28;20466;-75
2022/11/12 13:49:42;;;;;;;15.77;14.37;;;11.50;99.90;;;;;;5076734;28;20532;-76
2022/11/12 13:52:30;;;;;;;16.80;15.37;;;11.50;99.90;;;;;;5076157;28;20573;-76
2022/11/12 13:55:18;;;;;;;17.47;15.77;;;11.50;99.90;;;;;;5076414;28;20891;-76
2022/11/12 13:58:06;;;;;;;16.33;14.83;;;11.50;99.90;;;;;;5076138;28;20972;-77
2022/11/12 14:00:53;;;;;;;15.47;14.07;;;11.50;99.90;;;;;;5076437;28;20977;-77
2022/11/12 14:03:45;;;;;;;17.10;15.70;;;11.50;99.90;;;;;;5076124;28;20538;-77
2022/11/12 14:06:36;;;;;;;23.30;21.00;;;11.50;99.90;;;;;;5075807;28;20433;-75
2022/11/12 14:09:54;;;;;;;16.90;15.30;;;11.40;99.90;;;;;;5075842;28;20433;-75
2022/11/12 14:13:07;;;;;;;15.60;14.20;;;11.40;99.90;;;;;;5075431;28;20471;-76
2022/11/12 14:16:22;;;;;;;13.97;12.57;;;11.40;99.90;;;;;;5076134;28;20424;-77
2022/11/12 14:19:46;;;;;;;13.73;12.53;;;11.40;99.90;;;;;;5075842;28;20583;-77
2022/11/12 14:22:40;;;;;;;13.63;12.37;;;11.40;99.90;;;;;;5075108;28;20606;-77
2022/11/12 14:25:29;;;;;;;14.43;13.10;;;11.40;99.90;;;;;;5075390;28;20425;-76
2022/11/12 14:28:27;;;;;;;15.50;14.00;;;11.40;99.90;;;;;;5075881;28;20480;-76
2022/11/12 14:31:15;;;;;;;15.17;13.87;;;11.40;99.90;;;;;;5075131;28;20539;-76
2022/11/12 14:34:23;;;;;;;14.37;13.10;;;11.40;99.90;;;;;;5075246;28;20571;-76
2022/11/12 14:37:29;;;;;;;12.90;11.70;;;11.40;99.90;;;;;;5075610;28;20769;-76
2022/11/12 14:40:17;;;;;;;13.23;11.90;;;11.30;99.90;;;;;;5075164;28;20491;-76
2022/11/12 14:43:06;;;;;;;13.70;12.47;;;11.30;99.90;;;;;;5076078;28;20491;-76
2022/11/12 14:45:55;;;;;;;12.63;11.43;;;11.20;99.90;;;;;;5075883;28;20421;-76
2022/11/12 14:48:49;;;;;;;13.20;11.90;;;11.20;99.90;;;;;;5075537;28;20424;-76
2022/11/12 14:51:42;;;;;;;13.30;12.00;;;11.10;99.90;;;;;;5075115;28;20527;-76
2022/11/12 14:54:32;;;;;;;14.97;13.60;;;11.10;99.90;;;;;;5074967;28;20420;-76
2022/11/12 14:57:24;;;;;;;14.67;13.43;;;11.10;99.90;;;;;;5074663;28;20436;-76
2022/11/12 15:00:33;;;;;;;16.30;14.87;;;11.00;99.90;;;;;;5074933;28;20421;-76
2022/11/12 15:03:23;;;;;;;16.97;15.40;;;11.00;99.90;;;;;;5074435;28;20460;-76